createdAt,value
2018-06-30T00:02:04.599Z,12.90
2018-06-30T00:04:32.303Z,13.70
2018-06-30T00:06:59.666Z,13.73
2018-06-30T00:09:27.044Z,12.80
2018-06-30T00:11:54.388Z,11.00
2018-06-30T00:14:21.842Z,11.38
2018-06-30T00:16:49.175Z,10.75
2018-06-30T00:19:17.419Z,11.70
2018-06-30T00:21:44.738Z,10.87
2018-06-30T00:24:12.060Z,11.83
2018-06-30T00:26:39.404Z,13.23
2018-06-30T00:29:06.738Z,12.60
2018-06-30T00:31:34.064Z,12.63
2018-06-30T00:34:01.384Z,13.80
2018-06-30T00:36:28.750Z,12.90
2018-06-30T00:38:56.018Z,12.03
2018-06-30T00:41:23.268Z,11.03
2018-06-30T00:43:50.562Z,10.77
2018-06-30T00:46:17.823Z,11.67
2018-06-30T00:48:45.130Z,10.83
2018-06-30T00:51:12.482Z,10.43
2018-06-30T00:53:39.760Z,12.13
2018-06-30T00:56:07.040Z,10.57
2018-06-30T00:58:34.356Z,11.43
2018-06-30T01:01:01.631Z,12.43
2018-06-30T01:03:29.155Z,12.97
2018-06-30T01:05:56.415Z,13.00
2018-06-30T01:08:23.780Z,13.00
2018-06-30T01:10:51.114Z,12.30
2018-06-30T01:13:18.428Z,12.40
2018-06-30T01:15:45.678Z,12.70
2018-06-30T01:18:12.963Z,12.00
2018-06-30T01:20:40.403Z,12.10
2018-06-30T01:23:07.673Z,13.13
2018-06-30T01:25:34.988Z,13.27
2018-06-30T01:28:02.236Z,10.97
2018-06-30T01:30:29.524Z,11.70
2018-06-30T01:32:56.875Z,11.63
2018-06-30T01:35:24.138Z,11.33
2018-06-30T01:37:51.459Z,11.63
2018-06-30T01:40:18.772Z,12.67
2018-06-30T01:42:46.047Z,11.93
2018-06-30T01:45:13.336Z,11.87
2018-06-30T01:47:40.581Z,11.63
2018-06-30T01:50:07.908Z,11.80
2018-06-30T01:52:35.195Z,11.07
2018-06-30T01:55:02.528Z,11.33
2018-06-30T01:57:29.875Z,10.83
2018-06-30T01:59:57.228Z,12.27
2018-06-30T02:02:24.584Z,11.60
2018-06-30T02:04:51.783Z,11.07
2018-06-30T02:07:19.084Z,12.70
2018-06-30T02:09:46.381Z,13.47
2018-06-30T02:12:13.672Z,14.27
2018-06-30T02:14:40.919Z,13.87
2018-06-30T02:17:08.256Z,13.60
2018-06-30T02:19:35.576Z,12.70
2018-06-30T02:22:02.855Z,12.77
2018-06-30T02:24:30.092Z,12.10
2018-06-30T02:26:58.588Z,12.53
2018-06-30T02:29:25.915Z,13.07
2018-06-30T02:31:53.184Z,11.47
2018-06-30T02:34:20.736Z,11.33
2018-06-30T02:36:48.031Z,12.27
2018-06-30T02:39:15.442Z,13.53
2018-06-30T02:41:42.661Z,13.60
2018-06-30T02:44:09.996Z,13.30
2018-06-30T02:46:37.383Z,12.93
2018-06-30T02:49:04.985Z,12.90
2018-06-30T02:51:32.276Z,13.60
2018-06-30T02:53:59.604Z,13.37
2018-06-30T02:56:26.875Z,13.30
2018-06-30T02:58:54.475Z,11.53
2018-06-30T03:01:21.738Z,12.00
2018-06-30T03:03:49.049Z,10.70
2018-06-30T03:06:16.331Z,11.50
2018-06-30T03:08:43.618Z,12.23
2018-06-30T03:11:10.926Z,11.60
2018-06-30T03:13:38.225Z,12.77
2018-06-30T03:16:05.565Z,11.57
2018-06-30T03:18:32.821Z,13.70
2018-06-30T03:21:00.323Z,11.40
2018-06-30T03:23:27.888Z,12.57
2018-06-30T03:25:55.440Z,11.73
2018-06-30T03:28:22.706Z,12.33
2018-06-30T03:30:50.125Z,12.23
2018-06-30T03:33:17.496Z,12.70
2018-06-30T03:35:44.850Z,13.67
2018-06-30T03:38:12.215Z,14.27
2018-06-30T03:40:39.808Z,15.77
2018-06-30T03:43:07.135Z,14.97
2018-06-30T03:45:34.495Z,15.03
2018-06-30T03:48:01.751Z,14.30
2018-06-30T03:50:29.280Z,14.93
2018-06-30T03:52:56.545Z,13.57
2018-06-30T03:55:24.085Z,14.10
2018-06-30T03:57:51.359Z,14.10
2018-06-30T04:00:18.654Z,13.77
2018-06-30T04:02:45.906Z,14.27
2018-06-30T04:05:13.199Z,12.90
2018-06-30T04:07:40.454Z,13.83
2018-06-30T04:10:07.710Z,13.17
2018-06-30T04:12:34.955Z,13.00
2018-06-30T04:15:02.207Z,12.57
2018-06-30T04:17:29.566Z,11.47
2018-06-30T04:19:56.833Z,11.40
2018-06-30T04:22:24.088Z,11.50
2018-06-30T04:24:51.342Z,11.47
2018-06-30T04:27:18.588Z,13.93
2018-06-30T04:29:45.876Z,14.83
2018-06-30T04:32:13.107Z,13.50
2018-06-30T04:34:40.339Z,12.63
2018-06-30T04:37:07.591Z,12.57
2018-06-30T04:39:34.832Z,12.90
2018-06-30T04:42:02.095Z,13.43
2018-06-30T04:44:29.315Z,12.43
2018-06-30T04:46:56.558Z,12.43
2018-06-30T04:49:23.807Z,12.20
2018-06-30T04:51:51.058Z,12.57
2018-06-30T04:54:18.326Z,12.07
2018-06-30T04:56:45.620Z,12.37
2018-06-30T04:59:12.887Z,11.63
2018-06-30T05:01:40.165Z,11.77
2018-06-30T05:04:07.422Z,11.23
2018-06-30T05:06:34.699Z,11.37
2018-06-30T05:09:01.960Z,11.13
2018-06-30T05:11:29.235Z,11.15
2018-06-30T05:13:56.483Z,11.17
2018-06-30T05:16:23.785Z,10.88
2018-06-30T05:18:51.010Z,10.80
2018-06-30T05:21:18.300Z,10.70
2018-06-30T05:23:45.547Z,10.75
2018-06-30T05:26:12.759Z,9.93
2018-06-30T05:28:40.028Z,10.30
2018-06-30T05:31:07.395Z,9.80
2018-06-30T05:33:34.658Z,9.93
2018-06-30T05:36:01.895Z,9.88
2018-06-30T05:38:29.244Z,9.80
2018-06-30T05:40:56.482Z,9.38
2018-06-30T05:43:23.724Z,8.83
2018-06-30T05:45:50.936Z,9.40
2018-06-30T05:48:18.167Z,8.03
2018-06-30T05:50:45.415Z,8.95
2018-06-30T05:53:12.721Z,8.60
2018-06-30T05:55:39.948Z,8.83
2018-06-30T05:58:07.299Z,8.50
2018-06-30T06:00:34.575Z,8.08
2018-06-30T06:03:01.967Z,8.35
2018-06-30T06:05:29.212Z,19.37
2018-06-30T06:07:56.505Z,14.07
2018-06-30T06:10:23.760Z,11.93
2018-06-30T06:12:51.026Z,10.30
2018-06-30T06:15:18.357Z,7.60
2018-06-30T06:17:45.635Z,7.45
2018-06-30T06:20:12.941Z,7.15
2018-06-30T06:22:40.195Z,7.03
2018-06-30T06:25:07.503Z,6.47
2018-06-30T06:27:34.878Z,5.72
2018-06-30T06:30:02.104Z,6.08
2018-06-30T06:32:29.499Z,4.70
2018-06-30T06:34:56.821Z,4.60
2018-06-30T06:37:24.087Z,4.72
2018-06-30T06:39:51.671Z,4.37
2018-06-30T06:42:18.922Z,4.37
2018-06-30T06:44:46.223Z,4.53
2018-06-30T06:47:13.550Z,4.45
2018-06-30T06:49:40.888Z,4.22
2018-06-30T06:52:08.184Z,4.45
2018-06-30T06:54:35.568Z,4.35
2018-06-30T06:57:03.148Z,4.72
2018-06-30T06:59:30.468Z,4.33
2018-06-30T07:01:57.844Z,4.25
2018-06-30T07:04:25.104Z,4.30
2018-06-30T07:06:52.364Z,4.03
2018-06-30T07:09:19.621Z,4.80
2018-06-30T07:11:47.024Z,4.50
2018-06-30T07:14:14.680Z,4.08
2018-06-30T07:16:41.877Z,4.12
2018-06-30T07:19:09.277Z,3.90
2018-06-30T07:21:36.540Z,3.90
2018-06-30T07:24:04.087Z,4.15
2018-06-30T07:26:31.427Z,4.00
2018-06-30T07:28:58.952Z,4.10
2018-06-30T07:31:26.315Z,4.60
2018-06-30T07:33:53.829Z,3.55
2018-06-30T07:36:21.385Z,4.10
2018-06-30T07:38:49.123Z,3.90
2018-06-30T07:41:16.577Z,3.45
2018-06-30T07:43:43.842Z,3.45
2018-06-30T07:46:11.327Z,3.80
2018-06-30T07:48:39.115Z,3.92
2018-06-30T07:51:06.392Z,3.70
2018-06-30T07:53:33.619Z,3.50
2018-06-30T07:56:00.881Z,3.58
2018-06-30T07:58:28.124Z,3.40
2018-06-30T08:00:55.460Z,3.47
2018-06-30T08:03:22.732Z,3.70
2018-06-30T08:05:50.686Z,3.35
2018-06-30T08:08:18.053Z,3.52
2018-06-30T08:10:45.473Z,3.47
2018-06-30T08:13:12.780Z,3.83
2018-06-30T08:15:40.180Z,3.55
2018-06-30T08:18:07.615Z,3.50
2018-06-30T08:20:34.955Z,3.52
2018-06-30T08:23:03.446Z,3.35
2018-06-30T08:25:30.708Z,3.52
2018-06-30T08:27:57.983Z,3.17
2018-06-30T08:30:25.232Z,3.52
2018-06-30T08:32:52.471Z,3.58
2018-06-30T08:35:19.727Z,3.40
2018-06-30T08:37:46.984Z,3.30
2018-06-30T08:40:14.229Z,3.12
2018-06-30T08:42:41.596Z,3.42
2018-06-30T08:45:09.203Z,3.27
2018-06-30T08:47:36.499Z,3.27
2018-06-30T08:50:03.822Z,3.50
2018-06-30T08:52:31.652Z,3.58
2018-06-30T08:54:58.979Z,3.47
2018-06-30T08:57:26.261Z,3.40
2018-06-30T08:59:53.559Z,3.42
2018-06-30T09:02:20.915Z,3.60
2018-06-30T09:04:48.164Z,3.77
2018-06-30T09:07:15.410Z,3.25
2018-06-30T09:09:42.681Z,3.30
2018-06-30T09:12:10.221Z,3.98
2018-06-30T09:14:37.455Z,3.20
2018-06-30T09:17:04.772Z,3.77
2018-06-30T09:19:32.075Z,3.67
2018-06-30T09:21:59.366Z,3.80
2018-06-30T09:24:26.624Z,3.40
2018-06-30T09:26:54.524Z,3.42
2018-06-30T09:29:21.763Z,3.45
2018-06-30T09:31:48.990Z,3.85
2018-06-30T09:34:16.336Z,3.70
2018-06-30T09:36:43.644Z,3.33
2018-06-30T09:39:11.210Z,3.65
2018-06-30T09:41:38.677Z,3.15
2018-06-30T09:44:06.515Z,3.67
2018-06-30T09:46:33.839Z,3.47
2018-06-30T09:49:01.142Z,3.52
2018-06-30T09:51:28.379Z,3.17
2018-06-30T09:53:56.071Z,3.17
2018-06-30T09:56:23.387Z,3.70
2018-06-30T09:58:50.744Z,3.30
2018-06-30T10:01:18.152Z,3.10
2018-06-30T10:03:45.408Z,3.08
2018-06-30T10:06:12.641Z,3.10
2018-06-30T10:08:39.900Z,3.25
2018-06-30T10:11:07.189Z,3.05
2018-06-30T10:13:34.553Z,3.00
2018-06-30T10:18:54.631Z,2.62
2018-06-30T10:21:22.124Z,2.33
2018-06-30T10:23:49.351Z,2.95
2018-06-30T10:26:16.623Z,2.90
2018-06-30T10:28:43.851Z,2.77
2018-06-30T10:31:11.145Z,2.60
2018-06-30T10:33:38.380Z,2.37
2018-06-30T10:36:05.649Z,2.40
2018-06-30T10:38:33.211Z,2.67
2018-06-30T10:41:00.463Z,2.35
2018-06-30T10:43:27.722Z,2.60
2018-06-30T10:45:54.971Z,2.60
2018-06-30T10:48:22.303Z,2.50
2018-06-30T10:50:49.555Z,2.50
2018-06-30T10:53:16.837Z,2.20
2018-06-30T10:55:44.059Z,2.40
2018-06-30T10:58:11.319Z,2.30
2018-06-30T11:00:38.632Z,2.50
2018-06-30T11:03:05.930Z,2.37
2018-06-30T11:05:33.168Z,2.42
2018-06-30T11:08:00.742Z,2.37
2018-06-30T11:10:28.011Z,2.40
2018-06-30T11:12:55.295Z,2.42
2018-06-30T11:15:22.524Z,2.22
2018-06-30T11:17:49.840Z,2.40
2018-06-30T11:20:17.194Z,2.70
2018-06-30T11:22:44.419Z,2.37
2018-06-30T11:25:11.675Z,2.62
2018-06-30T11:27:38.959Z,2.75
2018-06-30T11:30:08.290Z,2.70
2018-06-30T11:32:35.756Z,2.80
2018-06-30T11:35:03.417Z,3.12
2018-06-30T11:37:30.738Z,3.52
2018-06-30T11:39:58.418Z,3.77
2018-06-30T11:42:25.675Z,3.72
2018-06-30T11:44:52.980Z,3.72
2018-06-30T11:47:20.255Z,3.35
2018-06-30T11:49:47.510Z,3.15
2018-06-30T11:52:14.808Z,3.00
2018-06-30T11:54:42.115Z,3.40
2018-06-30T11:57:09.392Z,2.77
2018-06-30T11:59:36.682Z,3.35
2018-06-30T12:02:03.997Z,3.25
2018-06-30T12:04:31.231Z,3.45
2018-06-30T12:06:58.568Z,3.30
2018-06-30T12:09:26.780Z,3.20
2018-06-30T12:11:54.055Z,3.30
2018-06-30T12:14:21.346Z,3.20
2018-06-30T12:16:48.620Z,3.37
2018-06-30T12:19:15.956Z,3.33
2018-06-30T12:21:43.238Z,3.60
2018-06-30T12:24:10.619Z,3.80
2018-06-30T12:26:37.933Z,3.95
2018-06-30T12:29:05.215Z,3.92
2018-06-30T12:31:32.516Z,3.90
2018-06-30T12:33:59.897Z,4.05
2018-06-30T12:36:27.211Z,4.00
2018-06-30T12:38:54.475Z,4.08
2018-06-30T12:41:21.758Z,3.85
2018-06-30T12:43:49.019Z,4.03
2018-06-30T12:46:16.339Z,3.98
2018-06-30T12:48:43.602Z,3.80
2018-06-30T12:51:10.879Z,4.08
2018-06-30T12:53:38.105Z,4.40
2018-06-30T12:56:05.497Z,4.03
2018-06-30T12:58:32.734Z,3.95
2018-06-30T13:00:59.975Z,3.85
2018-06-30T13:03:27.228Z,3.70
2018-06-30T13:05:54.536Z,3.92
2018-06-30T13:08:22.912Z,3.95
2018-06-30T13:10:50.199Z,3.98
2018-06-30T13:13:17.431Z,3.85
2018-06-30T13:15:44.709Z,3.50
2018-06-30T13:18:11.979Z,3.90
2018-06-30T13:20:39.236Z,3.30
2018-06-30T13:23:06.560Z,3.50
2018-06-30T13:25:33.927Z,3.22
2018-06-30T13:28:01.243Z,3.42
2018-06-30T13:30:28.534Z,3.40
2018-06-30T13:32:55.839Z,3.12
2018-06-30T13:35:23.068Z,3.15
2018-06-30T13:37:50.377Z,2.80
2018-06-30T13:40:17.632Z,3.15
2018-06-30T13:42:44.903Z,3.00
2018-06-30T13:45:12.275Z,3.10
2018-06-30T13:47:39.680Z,2.95
2018-06-30T13:50:07.433Z,3.05
2018-06-30T13:52:34.863Z,2.92
2018-06-30T13:55:03.624Z,2.95
2018-06-30T13:57:31.269Z,2.98
2018-06-30T13:59:58.511Z,3.17
2018-06-30T14:02:25.800Z,3.02
2018-06-30T14:04:53.107Z,3.12
2018-06-30T14:07:20.375Z,2.72
2018-06-30T14:09:47.937Z,3.37
2018-06-30T14:12:15.813Z,2.85
2018-06-30T14:14:43.062Z,2.90
2018-06-30T14:17:10.337Z,3.08
2018-06-30T14:19:37.717Z,2.50
2018-06-30T14:22:05.183Z,2.72
2018-06-30T14:24:32.475Z,2.65
2018-06-30T14:27:00.093Z,2.50
2018-06-30T14:29:27.500Z,2.52
2018-06-30T14:31:55.056Z,2.10
2018-06-30T14:34:22.351Z,2.65
2018-06-30T14:36:49.638Z,2.35
2018-06-30T14:39:17.075Z,2.58
2018-06-30T14:41:44.481Z,2.25
2018-06-30T14:44:11.768Z,2.60
2018-06-30T14:46:39.054Z,2.42
2018-06-30T14:49:06.298Z,2.60
2018-06-30T14:51:34.195Z,2.60
2018-06-30T14:54:01.752Z,2.10
2018-06-30T14:56:34.604Z,1.90
2018-06-30T14:59:01.943Z,2.20
2018-06-30T15:01:29.200Z,2.25
2018-06-30T15:03:56.477Z,2.40
2018-06-30T15:06:24.520Z,2.20
2018-06-30T15:08:51.844Z,2.05
2018-06-30T15:11:19.116Z,2.05
2018-06-30T15:13:46.512Z,1.98
2018-06-30T15:16:16.814Z,1.75
2018-06-30T15:18:57.226Z,1.60
2018-06-30T15:21:24.643Z,1.70
2018-06-30T15:23:52.179Z,1.75
2018-06-30T15:26:21.160Z,2.00
2018-06-30T15:28:48.461Z,1.85
2018-06-30T15:31:21.568Z,1.60
2018-06-30T15:33:50.070Z,1.60
2018-06-30T15:36:17.420Z,1.72
2018-06-30T15:38:44.949Z,1.60
2018-06-30T15:41:12.244Z,1.98
2018-06-30T15:43:39.482Z,1.80
2018-06-30T15:46:06.944Z,1.72
2018-06-30T15:48:34.726Z,1.70
2018-06-30T15:51:04.029Z,1.40
2018-06-30T15:53:31.291Z,1.67
2018-06-30T15:55:58.587Z,1.60
2018-06-30T15:58:25.899Z,1.82
2018-06-30T16:00:53.175Z,1.75
2018-06-30T16:03:20.501Z,2.30
2018-06-30T16:05:47.771Z,2.00
2018-06-30T16:08:15.032Z,1.85
2018-06-30T16:10:42.268Z,1.77
2018-06-30T16:13:09.975Z,1.70
2018-06-30T16:15:37.291Z,1.50
2018-06-30T16:18:05.616Z,1.40
2018-06-30T16:20:32.890Z,1.60
2018-06-30T16:23:00.246Z,1.32
2018-06-30T16:25:27.533Z,1.90
2018-06-30T16:27:54.827Z,6.67
2018-06-30T16:30:22.150Z,2.00
2018-06-30T16:32:49.447Z,1.82
2018-06-30T16:35:16.740Z,1.42
2018-06-30T16:37:44.084Z,1.80
2018-06-30T16:40:11.444Z,2.00
2018-06-30T16:42:38.698Z,2.22
2018-06-30T16:45:05.975Z,1.30
2018-06-30T16:47:33.788Z,1.40
2018-06-30T16:50:01.173Z,1.20
2018-06-30T16:52:28.593Z,1.00
2018-06-30T16:54:55.992Z,1.20
2018-06-30T16:57:23.309Z,1.00
2018-06-30T16:59:50.641Z,0.98
2018-06-30T17:02:18.041Z,1.20
2018-06-30T17:04:45.396Z,1.10
2018-06-30T17:07:12.699Z,2.50
2018-06-30T17:09:40.007Z,2.80
2018-06-30T17:12:07.500Z,0.90
2018-06-30T17:14:35.037Z,1.10
2018-06-30T17:17:02.368Z,1.00
2018-06-30T17:19:32.140Z,1.00
2018-06-30T17:21:59.428Z,1.57
2018-06-30T17:24:26.721Z,1.45
2018-06-30T17:26:54.030Z,1.62
2018-06-30T17:29:21.332Z,1.42
2018-06-30T17:31:48.626Z,1.47
2018-06-30T17:34:15.892Z,1.00
2018-06-30T17:36:43.164Z,1.10
2018-06-30T17:39:10.781Z,1.00
2018-06-30T17:41:39.059Z,1.10
2018-06-30T17:44:07.215Z,1.30
2018-06-30T17:46:34.503Z,0.93
2018-06-30T17:49:02.235Z,1.20
2018-06-30T17:51:49.280Z,0.95
2018-06-30T17:54:16.647Z,1.20
2018-06-30T17:56:43.922Z,1.10
2018-06-30T17:59:11.204Z,3.40
2018-06-30T18:01:38.565Z,4.15
2018-06-30T18:04:12.143Z,1.98
2018-06-30T18:06:39.458Z,1.52
2018-06-30T18:09:08.532Z,1.20
2018-06-30T18:11:35.872Z,2.90
2018-06-30T18:14:03.887Z,3.20
2018-06-30T18:16:31.400Z,4.00
2018-06-30T18:18:58.675Z,1.20
2018-06-30T18:21:25.970Z,1.00
2018-06-30T18:23:53.284Z,1.00
2018-06-30T18:26:20.604Z,1.17
2018-06-30T18:28:47.901Z,1.02
2018-06-30T18:31:15.211Z,1.20
2018-06-30T18:33:42.477Z,0.60
2018-06-30T18:36:09.872Z,0.70
2018-06-30T18:38:37.164Z,0.90
2018-06-30T18:41:04.519Z,0.70
2018-06-30T18:43:31.790Z,0.70
2018-06-30T18:45:59.071Z,1.12
2018-06-30T18:48:26.351Z,0.90
2018-06-30T18:50:53.645Z,1.20
2018-06-30T18:53:21.831Z,0.88
2018-06-30T18:55:49.080Z,0.82
2018-06-30T18:58:16.396Z,0.90
2018-06-30T19:00:43.640Z,1.00
2018-06-30T19:03:11.208Z,0.90
2018-06-30T19:05:38.482Z,1.10
2018-06-30T19:08:06.306Z,1.00
2018-06-30T19:10:33.604Z,1.27
2018-06-30T19:13:00.908Z,1.22
2018-06-30T19:15:28.133Z,1.40
2018-06-30T19:17:55.453Z,1.37
2018-06-30T19:20:22.708Z,1.05
2018-06-30T19:22:50.009Z,1.17
2018-06-30T19:25:18.352Z,1.12
2018-06-30T19:27:45.753Z,1.30
2018-06-30T19:30:13.103Z,1.27
2018-06-30T19:32:40.340Z,1.67
2018-06-30T19:35:07.692Z,7.87
2018-06-30T19:37:35.000Z,1.80
2018-06-30T19:40:02.363Z,1.50
2018-06-30T19:42:29.587Z,1.70
2018-06-30T19:44:59.551Z,2.20
2018-06-30T19:47:26.855Z,1.80
2018-06-30T19:49:54.179Z,1.20
2018-06-30T19:52:21.487Z,1.20
2018-06-30T19:54:48.803Z,1.30
2018-06-30T19:57:16.224Z,1.20
2018-06-30T19:59:43.536Z,1.10
2018-06-30T20:02:10.861Z,1.35
2018-06-30T20:04:38.243Z,1.30
2018-06-30T20:07:06.542Z,1.85
2018-06-30T20:09:33.831Z,2.20
2018-06-30T20:14:50.891Z,1.90
2018-06-30T20:17:18.187Z,1.62
2018-06-30T20:19:45.484Z,1.70
2018-06-30T20:22:12.916Z,2.20
2018-06-30T20:24:40.964Z,2.20
2018-06-30T20:27:08.498Z,2.33
2018-06-30T20:29:35.987Z,2.50
2018-06-30T20:32:03.301Z,2.15
2018-06-30T20:34:30.628Z,2.20
2018-06-30T20:37:18.067Z,1.95
2018-06-30T20:39:45.504Z,2.40
2018-06-30T20:42:18.443Z,3.02
2018-06-30T20:44:46.431Z,2.55
2018-06-30T20:47:13.752Z,2.50
2018-06-30T20:49:47.616Z,2.70
2018-06-30T20:52:16.895Z,2.00
2018-06-30T20:54:45.135Z,2.33
2018-06-30T20:57:30.057Z,1.42
2018-06-30T20:59:57.436Z,1.50
2018-06-30T21:02:24.799Z,1.15
2018-06-30T21:04:52.089Z,1.20
2018-06-30T21:07:23.011Z,1.20
2018-06-30T21:09:50.329Z,1.47
2018-06-30T21:12:17.637Z,1.42
2018-06-30T21:14:44.920Z,1.50
2018-06-30T21:17:12.224Z,1.30
2018-06-30T21:19:39.502Z,1.60
2018-06-30T21:22:07.267Z,1.10
2018-06-30T21:24:34.539Z,1.10
2018-06-30T21:27:01.791Z,1.17
2018-06-30T21:29:29.097Z,0.95
2018-06-30T21:31:56.392Z,0.98
2018-06-30T21:34:25.916Z,1.22
2018-06-30T21:36:53.260Z,1.10
2018-06-30T21:39:20.602Z,1.00
2018-06-30T21:41:47.967Z,1.20
2018-06-30T21:44:15.295Z,1.00
2018-06-30T21:46:42.540Z,1.40
2018-06-30T21:49:09.957Z,1.30
2018-06-30T21:51:37.608Z,1.65
2018-06-30T21:54:06.388Z,1.30
2018-06-30T21:56:33.716Z,1.42
2018-06-30T21:59:01.078Z,1.50
2018-06-30T22:01:28.370Z,1.62
2018-06-30T22:03:57.400Z,1.70
2018-06-30T22:06:24.752Z,1.60
2018-06-30T22:08:52.139Z,1.50
2018-06-30T22:11:20.491Z,1.50
2018-06-30T22:13:47.841Z,1.63
2018-06-30T22:16:15.256Z,1.90
2018-06-30T22:18:42.567Z,1.80
2018-06-30T22:21:10.227Z,1.67
2018-06-30T22:23:37.485Z,1.80
2018-06-30T22:26:04.803Z,1.70
2018-06-30T22:28:32.145Z,1.50
2018-06-30T22:30:59.405Z,1.33
2018-06-30T22:33:26.655Z,2.20
2018-06-30T22:35:54.002Z,3.43
2018-06-30T22:38:21.255Z,4.27
2018-06-30T22:40:48.542Z,3.30
2018-06-30T22:43:15.843Z,2.77
2018-06-30T22:45:43.101Z,2.07
2018-06-30T22:48:13.192Z,1.73
2018-06-30T22:50:40.616Z,1.40
2018-06-30T22:53:11.219Z,1.73
2018-06-30T22:55:41.593Z,1.20
2018-06-30T22:58:17.446Z,1.53
2018-06-30T23:00:52.772Z,1.03
2018-06-30T23:03:20.178Z,1.20
2018-06-30T23:05:47.443Z,1.30
2018-06-30T23:08:14.752Z,1.70
2018-06-30T23:10:42.032Z,1.30
2018-06-30T23:13:09.311Z,1.30
2018-06-30T23:15:36.571Z,1.30
2018-06-30T23:18:04.781Z,1.10
2018-06-30T23:20:33.278Z,1.30
2018-06-30T23:23:02.816Z,1.00
2018-06-30T23:25:31.236Z,1.20
2018-06-30T23:27:58.875Z,1.20
2018-06-30T23:30:26.683Z,1.10
2018-06-30T23:32:55.344Z,1.70
2018-06-30T23:35:23.967Z,1.30
2018-06-30T23:37:51.627Z,1.20
2018-06-30T23:40:18.865Z,1.60
2018-06-30T23:42:46.191Z,1.37
2018-06-30T23:45:13.460Z,1.10
2018-06-30T23:47:40.747Z,1.00
2018-06-30T23:50:07.987Z,1.07
2018-06-30T23:52:35.859Z,1.03
2018-06-30T23:55:03.607Z,1.20
2018-06-30T23:57:30.868Z,1.10
2018-06-30T23:59:58.108Z,1.20
